sensor_id;sensor_type;location;lat;lon;timestamp;temperature;humidity
76120;DHT22;64852;48.092;-1.640;2023-01-13T00:01:16;12.70;99.90
76120;DHT22;64852;48.092;-1.640;2023-01-13T00:03:42;12.50;99.90
76120;DHT22;64852;48.092;-1.640;2023-01-13T00:06:10;12.40;99.90
76120;DHT22;64852;48.092;-1.640;2023-01-13T00:08:36;12.70;99.90
76120;DHT22;64852;48.092;-1.640;2023-01-13T00:11:02;12.70;99.90
76120;DHT22;64852;48.092;-1.640;2023-01-13T00:13:28;12.60;99.90
76120;DHT22;64852;48.092;-1.640;2023-01-13T00:16:04;12.50;99.90
76120;DHT22;64852;48.092;-1.640;2023-01-13T00:18:30;12.60;99.90
76120;DHT22;64852;48.092;-1.640;2023-01-13T00:23:27;12.50;99.90
76120;DHT22;64852;48.092;-1.640;2023-01-13T00:25:57;12.60;99.90
76120;DHT22;64852;48.092;-1.640;2023-01-13T00:28:23;12.70;99.90
76120;DHT22;64852;48.092;-1.640;2023-01-13T00:30:49;12.90;99.90
76120;DHT22;64852;48.092;-1.640;2023-01-13T00:33:15;12.60;99.90
76120;DHT22;64852;48.092;-1.640;2023-01-13T00:35:40;12.70;99.90
76120;DHT22;64852;48.092;-1.640;2023-01-13T00:38:06;12.60;99.90
76120;DHT22;64852;48.092;-1.640;2023-01-13T00:40:32;12.70;99.90
76120;DHT22;64852;48.092;-1.640;2023-01-13T00:42:57;12.70;99.90
76120;DHT22;64852;48.092;-1.640;2023-01-13T00:45:42;12.70;99.90
76120;DHT22;64852;48.092;-1.640;2023-01-13T00:48:08;12.50;99.90
76120;DHT22;64852;48.092;-1.640;2023-01-13T00:50:33;12.40;99.90
76120;DHT22;64852;48.092;-1.640;2023-01-13T00:52:59;12.50;99.90
76120;DHT22;64852;48.092;-1.640;2023-01-13T00:55:25;12.40;99.90
76120;DHT22;64852;48.092;-1.640;2023-01-13T00:57:51;12.40;99.90
76120;DHT22;64852;48.092;-1.640;2023-01-13T01:00:17;12.60;99.90
76120;DHT22;64852;48.092;-1.640;2023-01-13T01:02:43;12.60;99.90
76120;DHT22;64852;48.092;-1.640;2023-01-13T01:05:09;12.60;99.90
76120;DHT22;64852;48.092;-1.640;2023-01-13T01:07:35;12.50;99.90
76120;DHT22;64852;48.092;-1.640;2023-01-13T01:10:00;12.30;99.90
76120;DHT22;64852;48.092;-1.640;2023-01-13T01:12:26;12.50;99.90
76120;DHT22;64852;48.092;-1.640;2023-01-13T01:14:52;12.60;99.90
76120;DHT22;64852;48.092;-1.640;2023-01-13T01:17:17;12.70;99.90
76120;DHT22;64852;48.092;-1.640;2023-01-13T01:19:43;12.40;99.90
76120;DHT22;64852;48.092;-1.640;2023-01-13T01:22:09;12.40;99.90
76120;DHT22;64852;48.092;-1.640;2023-01-13T01:24:34;12.30;99.90
76120;DHT22;64852;48.092;-1.640;2023-01-13T01:27:00;12.40;99.90
76120;DHT22;64852;48.092;-1.640;2023-01-13T01:29:25;12.30;99.90
76120;DHT22;64852;48.092;-1.640;2023-01-13T01:31:51;12.20;99.90
76120;DHT22;64852;48.092;-1.640;2023-01-13T01:34:17;12.10;99.90
76120;DHT22;64852;48.092;-1.640;2023-01-13T01:36:42;12.00;99.90
76120;DHT22;64852;48.092;-1.640;2023-01-13T01:39:09;11.90;99.90
76120;DHT22;64852;48.092;-1.640;2023-01-13T01:41:34;12.00;99.90
76120;DHT22;64852;48.092;-1.640;2023-01-13T01:44:44;12.00;99.90
76120;DHT22;64852;48.092;-1.640;2023-01-13T01:46:52;12.00;99.90
76120;DHT22;64852;48.092;-1.640;2023-01-13T01:49:20;12.00;99.90
76120;DHT22;64852;48.092;-1.640;2023-01-13T01:51:57;11.90;99.90
76120;DHT22;64852;48.092;-1.640;2023-01-13T01:54:48;11.90;99.90
76120;DHT22;64852;48.092;-1.640;2023-01-13T01:57:28;11.80;99.90
76120;DHT22;64852;48.092;-1.640;2023-01-13T01:59:56;11.80;99.90
76120;DHT22;64852;48.092;-1.640;2023-01-13T02:02:23;11.70;99.90
76120;DHT22;64852;48.092;-1.640;2023-01-13T02:04:52;11.80;99.90
76120;DHT22;64852;48.092;-1.640;2023-01-13T02:07:28;11.70;99.90
76120;DHT22;64852;48.092;-1.640;2023-01-13T02:09:56;11.70;99.90
76120;DHT22;64852;48.092;-1.640;2023-01-13T02:12:23;11.60;99.90
76120;DHT22;64852;48.092;-1.640;2023-01-13T02:17:50;11.90;99.90
76120;DHT22;64852;48.092;-1.640;2023-01-13T02:31:41;11.90;99.90
76120;DHT22;64852;48.092;-1.640;2023-01-13T02:34:19;11.90;99.90
76120;DHT22;64852;48.092;-1.640;2023-01-13T02:36:57;11.80;99.90
76120;DHT22;64852;48.092;-1.640;2023-01-13T02:39:32;11.80;99.90
76120;DHT22;64852;48.092;-1.640;2023-01-13T02:44:50;11.70;99.90
76120;DHT22;64852;48.092;-1.640;2023-01-13T02:47:19;11.80;99.90
76120;DHT22;64852;48.092;-1.640;2023-01-13T02:49:50;11.80;99.90
76120;DHT22;64852;48.092;-1.640;2023-01-13T02:52:41;11.80;99.90
76120;DHT22;64852;48.092;-1.640;2023-01-13T02:55:13;11.80;99.90
76120;DHT22;64852;48.092;-1.640;2023-01-13T02:57:41;11.70;99.90
76120;DHT22;64852;48.092;-1.640;2023-01-13T03:00:08;11.70;99.90
76120;DHT22;64852;48.092;-1.640;2023-01-13T03:02:34;11.70;99.90
76120;DHT22;64852;48.092;-1.640;2023-01-13T03:05:00;11.80;99.90
76120;DHT22;64852;48.092;-1.640;2023-01-13T03:16:26;11.90;99.90
76120;DHT22;64852;48.092;-1.640;2023-01-13T03:24:16;11.80;99.90
76120;DHT22;64852;48.092;-1.640;2023-01-13T03:29:22;12.20;99.90
76120;DHT22;64852;48.092;-1.640;2023-01-13T03:34:55;12.10;99.90
76120;DHT22;64852;48.092;-1.640;2023-01-13T03:37:35;12.20;99.90
76120;DHT22;64852;48.092;-1.640;2023-01-13T03:40:24;12.30;99.90
76120;DHT22;64852;48.092;-1.640;2023-01-13T03:42:59;12.30;99.90
76120;DHT22;64852;48.092;-1.640;2023-01-13T03:45:57;12.10;99.90
76120;DHT22;64852;48.092;-1.640;2023-01-13T03:48:25;11.80;99.90
76120;DHT22;64852;48.092;-1.640;2023-01-13T03:50:57;11.60;99.90
76120;DHT22;64852;48.092;-1.640;2023-01-13T03:53:29;11.70;99.90
76120;DHT22;64852;48.092;-1.640;2023-01-13T03:56:21;11.50;99.90
76120;DHT22;64852;48.092;-1.640;2023-01-13T03:58:51;11.60;99.90
76120;DHT22;64852;48.092;-1.640;2023-01-13T04:01:21;11.70;99.90
76120;DHT22;64852;48.092;-1.640;2023-01-13T04:04:02;11.90;99.90
76120;DHT22;64852;48.092;-1.640;2023-01-13T04:11:55;11.90;99.90
76120;DHT22;64852;48.092;-1.640;2023-01-13T04:14:25;11.80;99.90
76120;DHT22;64852;48.092;-1.640;2023-01-13T04:16:52;12.00;99.90
76120;DHT22;64852;48.092;-1.640;2023-01-13T04:19:18;11.90;99.90
76120;DHT22;64852;48.092;-1.640;2023-01-13T04:21:43;11.90;99.90
76120;DHT22;64852;48.092;-1.640;2023-01-13T04:24:09;11.90;99.90
76120;DHT22;64852;48.092;-1.640;2023-01-13T04:26:35;11.90;99.90
76120;DHT22;64852;48.092;-1.640;2023-01-13T04:29:01;11.80;99.90
76120;DHT22;64852;48.092;-1.640;2023-01-13T04:31:26;11.70;99.90
76120;DHT22;64852;48.092;-1.640;2023-01-13T04:33:52;11.80;99.90
76120;DHT22;64852;48.092;-1.640;2023-01-13T04:36:17;11.70;99.90
76120;DHT22;64852;48.092;-1.640;2023-01-13T04:38:44;11.70;99.90
76120;DHT22;64852;48.092;-1.640;2023-01-13T04:41:09;11.70;99.90
76120;DHT22;64852;48.092;-1.640;2023-01-13T04:43:35;11.70;99.90
76120;DHT22;64852;48.092;-1.640;2023-01-13T04:46:01;11.70;99.90
76120;DHT22;64852;48.092;-1.640;2023-01-13T04:48:26;11.70;99.90
76120;DHT22;64852;48.092;-1.640;2023-01-13T04:50:52;11.80;99.90
76120;DHT22;64852;48.092;-1.640;2023-01-13T04:53:18;11.90;99.90
76120;DHT22;64852;48.092;-1.640;2023-01-13T04:55:43;11.80;99.90
76120;DHT22;64852;48.092;-1.640;2023-01-13T04:58:10;11.80;99.90
76120;DHT22;64852;48.092;-1.640;2023-01-13T05:00:36;11.70;99.90
76120;DHT22;64852;48.092;-1.640;2023-01-13T05:03:02;11.60;99.90
76120;DHT22;64852;48.092;-1.640;2023-01-13T05:05:29;11.60;99.90
76120;DHT22;64852;48.092;-1.640;2023-01-13T05:07:55;11.60;99.90
76120;DHT22;64852;48.092;-1.640;2023-01-13T05:10:21;11.60;99.90
76120;DHT22;64852;48.092;-1.640;2023-01-13T05:12:47;11.50;99.90
76120;DHT22;64852;48.092;-1.640;2023-01-13T05:15:31;11.70;99.90
76120;DHT22;64852;48.092;-1.640;2023-01-13T05:18:16;11.70;99.90
76120;DHT22;64852;48.092;-1.640;2023-01-13T05:20:43;11.70;99.90
76120;DHT22;64852;48.092;-1.640;2023-01-13T05:23:09;11.70;99.90
76120;DHT22;64852;48.092;-1.640;2023-01-13T05:25:53;11.70;99.90
76120;DHT22;64852;48.092;-1.640;2023-01-13T05:28:19;11.60;99.90
76120;DHT22;64852;48.092;-1.640;2023-01-13T05:30:46;11.70;99.90
76120;DHT22;64852;48.092;-1.640;2023-01-13T05:33:16;11.70;99.90
76120;DHT22;64852;48.092;-1.640;2023-01-13T05:35:43;11.70;99.90
76120;DHT22;64852;48.092;-1.640;2023-01-13T05:38:10;11.70;99.90
76120;DHT22;64852;48.092;-1.640;2023-01-13T05:40:39;11.60;99.90
76120;DHT22;64852;48.092;-1.640;2023-01-13T05:43:24;11.70;99.90
76120;DHT22;64852;48.092;-1.640;2023-01-13T05:48:17;11.50;99.90
76120;DHT22;64852;48.092;-1.640;2023-01-13T05:50:43;11.40;99.90
76120;DHT22;64852;48.092;-1.640;2023-01-13T05:53:09;11.40;99.90
76120;DHT22;64852;48.092;-1.640;2023-01-13T05:55:41;11.50;99.90
76120;DHT22;64852;48.092;-1.640;2023-01-13T05:58:08;11.50;99.90
76120;DHT22;64852;48.092;-1.640;2023-01-13T06:00:33;11.40;99.90
76120;DHT22;64852;48.092;-1.640;2023-01-13T06:02:59;11.40;99.90
76120;DHT22;64852;48.092;-1.640;2023-01-13T06:05:25;11.50;99.90
76120;DHT22;64852;48.092;-1.640;2023-01-13T06:07:51;11.50;99.90
76120;DHT22;64852;48.092;-1.640;2023-01-13T06:10:17;11.60;99.90
76120;DHT22;64852;48.092;-1.640;2023-01-13T06:12:42;11.60;99.90
76120;DHT22;64852;48.092;-1.640;2023-01-13T06:15:08;11.50;99.90
76120;DHT22;64852;48.092;-1.640;2023-01-13T06:17:34;11.50;99.90
76120;DHT22;64852;48.092;-1.640;2023-01-13T06:20:00;11.50;99.90
76120;DHT22;64852;48.092;-1.640;2023-01-13T06:22:28;11.20;99.90
76120;DHT22;64852;48.092;-1.640;2023-01-13T06:24:57;11.30;99.90
76120;DHT22;64852;48.092;-1.640;2023-01-13T06:27:23;11.30;99.90
76120;DHT22;64852;48.092;-1.640;2023-01-13T06:29:49;11.20;99.90
76120;DHT22;64852;48.092;-1.640;2023-01-13T06:32:21;11.30;99.90
76120;DHT22;64852;48.092;-1.640;2023-01-13T06:34:53;11.40;99.90
76120;DHT22;64852;48.092;-1.640;2023-01-13T06:37:23;11.10;99.90
76120;DHT22;64852;48.092;-1.640;2023-01-13T06:39:54;11.20;99.90
76120;DHT22;64852;48.092;-1.640;2023-01-13T06:42:23;11.00;99.90
76120;DHT22;64852;48.092;-1.640;2023-01-13T06:45:08;11.20;99.90
76120;DHT22;64852;48.092;-1.640;2023-01-13T06:47:34;11.30;99.90
76120;DHT22;64852;48.092;-1.640;2023-01-13T06:49:59;11.50;99.90
76120;DHT22;64852;48.092;-1.640;2023-01-13T06:52:25;11.50;99.90
76120;DHT22;64852;48.092;-1.640;2023-01-13T06:54:57;11.50;99.90
76120;DHT22;64852;48.092;-1.640;2023-01-13T06:57:23;11.40;99.90
76120;DHT22;64852;48.092;-1.640;2023-01-13T06:59:49;11.40;99.90
76120;DHT22;64852;48.092;-1.640;2023-01-13T07:02:14;11.30;99.90
76120;DHT22;64852;48.092;-1.640;2023-01-13T07:04:40;11.30;99.90
76120;DHT22;64852;48.092;-1.640;2023-01-13T07:07:06;11.20;99.90
76120;DHT22;64852;48.092;-1.640;2023-01-13T07:09:34;11.30;99.90
76120;DHT22;64852;48.092;-1.640;2023-01-13T07:12:00;11.10;99.90
76120;DHT22;64852;48.092;-1.640;2023-01-13T07:14:25;11.10;99.90
76120;DHT22;64852;48.092;-1.640;2023-01-13T07:17:09;11.00;99.90
76120;DHT22;64852;48.092;-1.640;2023-01-13T07:19:35;11.00;99.90
76120;DHT22;64852;48.092;-1.640;2023-01-13T07:22:01;11.00;99.90
76120;DHT22;64852;48.092;-1.640;2023-01-13T07:24:26;11.20;99.90
76120;DHT22;64852;48.092;-1.640;2023-01-13T07:26:52;11.10;99.90
76120;DHT22;64852;48.092;-1.640;2023-01-13T07:29:18;11.10;99.90
76120;DHT22;64852;48.092;-1.640;2023-01-13T07:31:44;11.10;99.90
76120;DHT22;64852;48.092;-1.640;2023-01-13T07:34:09;11.10;99.90
76120;DHT22;64852;48.092;-1.640;2023-01-13T07:36:35;11.20;99.90
76120;DHT22;64852;48.092;-1.640;2023-01-13T07:39:01;11.10;99.90
76120;DHT22;64852;48.092;-1.640;2023-01-13T07:41:27;11.20;99.90
76120;DHT22;64852;48.092;-1.640;2023-01-13T07:44:11;11.30;99.90
76120;DHT22;64852;48.092;-1.640;2023-01-13T07:46:38;11.40;99.90
76120;DHT22;64852;48.092;-1.640;2023-01-13T07:49:04;11.70;99.90
76120;DHT22;64852;48.092;-1.640;2023-01-13T07:51:31;11.60;99.90
76120;DHT22;64852;48.092;-1.640;2023-01-13T07:53:57;11.70;99.90
76120;DHT22;64852;48.092;-1.640;2023-01-13T07:56:22;11.70;99.90
76120;DHT22;64852;48.092;-1.640;2023-01-13T07:58:48;11.80;99.90
76120;DHT22;64852;48.092;-1.640;2023-01-13T08:01:18;11.80;99.90
76120;DHT22;64852;48.092;-1.640;2023-01-13T08:03:44;11.60;99.90
76120;DHT22;64852;48.092;-1.640;2023-01-13T08:06:10;11.70;99.90
76120;DHT22;64852;48.092;-1.640;2023-01-13T08:08:36;11.60;99.90
76120;DHT22;64852;48.092;-1.640;2023-01-13T08:11:04;11.60;99.90
76120;DHT22;64852;48.092;-1.640;2023-01-13T08:13:30;11.60;99.90
76120;DHT22;64852;48.092;-1.640;2023-01-13T08:16:02;11.60;99.90
76120;DHT22;64852;48.092;-1.640;2023-01-13T08:18:29;11.60;99.90
76120;DHT22;64852;48.092;-1.640;2023-01-13T08:20:55;11.60;99.90
76120;DHT22;64852;48.092;-1.640;2023-01-13T08:23:25;11.60;99.90
76120;DHT22;64852;48.092;-1.640;2023-01-13T08:25:50;11.60;99.90
76120;DHT22;64852;48.092;-1.640;2023-01-13T08:28:16;11.60;99.90
76120;DHT22;64852;48.092;-1.640;2023-01-13T08:30:42;11.70;99.90
76120;DHT22;64852;48.092;-1.640;2023-01-13T08:33:09;11.70;99.90
76120;DHT22;64852;48.092;-1.640;2023-01-13T08:35:37;11.50;99.90
76120;DHT22;64852;48.092;-1.640;2023-01-13T08:38:03;11.60;99.90
76120;DHT22;64852;48.092;-1.640;2023-01-13T08:40:29;11.60;99.90
76120;DHT22;64852;48.092;-1.640;2023-01-13T08:42:55;11.50;99.90
76120;DHT22;64852;48.092;-1.640;2023-01-13T08:45:21;11.40;99.90
76120;DHT22;64852;48.092;-1.640;2023-01-13T08:47:47;11.30;99.90
76120;DHT22;64852;48.092;-1.640;2023-01-13T08:50:13;11.20;99.90
76120;DHT22;64852;48.092;-1.640;2023-01-13T08:52:39;11.10;99.90
76120;DHT22;64852;48.092;-1.640;2023-01-13T08:55:06;11.00;99.90
76120;DHT22;64852;48.092;-1.640;2023-01-13T08:57:32;11.00;99.90
76120;DHT22;64852;48.092;-1.640;2023-01-13T08:59:57;11.10;99.90
76120;DHT22;64852;48.092;-1.640;2023-01-13T09:02:24;11.20;99.90
76120;DHT22;64852;48.092;-1.640;2023-01-13T09:04:50;11.40;99.90
76120;DHT22;64852;48.092;-1.640;2023-01-13T09:07:17;11.40;99.90
76120;DHT22;64852;48.092;-1.640;2023-01-13T09:09:43;11.40;99.90
76120;DHT22;64852;48.092;-1.640;2023-01-13T09:12:16;11.20;99.90
76120;DHT22;64852;48.092;-1.640;2023-01-13T09:15:01;11.20;99.90
76120;DHT22;64852;48.092;-1.640;2023-01-13T09:17:27;11.20;99.90
76120;DHT22;64852;48.092;-1.640;2023-01-13T09:19:53;11.20;99.90
76120;DHT22;64852;48.092;-1.640;2023-01-13T09:22:19;11.20;99.90
76120;DHT22;64852;48.092;-1.640;2023-01-13T09:24:45;11.10;99.90
76120;DHT22;64852;48.092;-1.640;2023-01-13T09:27:12;11.20;99.90
76120;DHT22;64852;48.092;-1.640;2023-01-13T09:29:38;11.30;99.90
76120;DHT22;64852;48.092;-1.640;2023-01-13T09:32:05;11.40;99.90
76120;DHT22;64852;48.092;-1.640;2023-01-13T09:34:30;11.40;99.90
76120;DHT22;64852;48.092;-1.640;2023-01-13T09:37:15;11.40;99.90
76120;DHT22;64852;48.092;-1.640;2023-01-13T09:39:41;11.40;99.90
76120;DHT22;64852;48.092;-1.640;2023-01-13T09:48:02;11.10;99.90
76120;DHT22;64852;48.092;-1.640;2023-01-13T09:50:48;11.20;99.90
76120;DHT22;64852;48.092;-1.640;2023-01-13T09:53:20;11.30;99.90
76120;DHT22;64852;48.092;-1.640;2023-01-13T09:55:47;11.20;99.90
76120;DHT22;64852;48.092;-1.640;2023-01-13T09:58:17;11.20;99.90
76120;DHT22;64852;48.092;-1.640;2023-01-13T10:00:57;11.20;99.90
76120;DHT22;64852;48.092;-1.640;2023-01-13T10:03:30;11.30;99.90
76120;DHT22;64852;48.092;-1.640;2023-01-13T10:06:00;11.30;99.90
76120;DHT22;64852;48.092;-1.640;2023-01-13T10:08:33;11.20;99.90
76120;DHT22;64852;48.092;-1.640;2023-01-13T10:11:01;11.40;99.90
76120;DHT22;64852;48.092;-1.640;2023-01-13T10:13:49;11.30;99.90
76120;DHT22;64852;48.092;-1.640;2023-01-13T10:16:33;11.40;99.90
76120;DHT22;64852;48.092;-1.640;2023-01-13T10:29:54;11.90;99.90
76120;DHT22;64852;48.092;-1.640;2023-01-13T10:32:20;11.90;99.90
76120;DHT22;64852;48.092;-1.640;2023-01-13T10:34:48;11.90;99.90
76120;DHT22;64852;48.092;-1.640;2023-01-13T10:37:23;11.70;99.90
76120;DHT22;64852;48.092;-1.640;2023-01-13T10:39:55;11.90;99.90
76120;DHT22;64852;48.092;-1.640;2023-01-13T10:42:22;12.10;99.90
76120;DHT22;64852;48.092;-1.640;2023-01-13T10:44:59;12.10;99.90
76120;DHT22;64852;48.092;-1.640;2023-01-13T10:47:30;12.20;99.90
76120;DHT22;64852;48.092;-1.640;2023-01-13T10:52:39;12.10;99.90
76120;DHT22;64852;48.092;-1.640;2023-01-13T10:55:33;12.10;99.90
76120;DHT22;64852;48.092;-1.640;2023-01-13T10:58:25;12.00;99.90
76120;DHT22;64852;48.092;-1.640;2023-01-13T11:00:59;12.10;99.90
76120;DHT22;64852;48.092;-1.640;2023-01-13T11:03:25;12.10;99.90
76120;DHT22;64852;48.092;-1.640;2023-01-13T11:05:58;12.20;99.90
76120;DHT22;64852;48.092;-1.640;2023-01-13T11:08:28;12.20;99.90
76120;DHT22;64852;48.092;-1.640;2023-01-13T11:10:58;12.20;99.90
76120;DHT22;64852;48.092;-1.640;2023-01-13T11:13:32;12.40;99.90
76120;DHT22;64852;48.092;-1.640;2023-01-13T11:16:12;12.50;99.90
76120;DHT22;64852;48.092;-1.640;2023-01-13T11:18:45;12.50;99.90
76120;DHT22;64852;48.092;-1.640;2023-01-13T11:21:29;12.60;99.90
76120;DHT22;64852;48.092;-1.640;2023-01-13T11:24:05;12.70;99.90
76120;DHT22;64852;48.092;-1.640;2023-01-13T11:26:58;12.80;99.90
76120;DHT22;64852;48.092;-1.640;2023-01-13T11:32:19;12.70;99.90
76120;DHT22;64852;48.092;-1.640;2023-01-13T11:34:50;12.70;99.90
76120;DHT22;64852;48.092;-1.640;2023-01-13T11:37:23;12.80;99.90
76120;DHT22;64852;48.092;-1.640;2023-01-13T11:42:34;12.60;99.90
76120;DHT22;64852;48.092;-1.640;2023-01-13T11:47:47;12.50;99.90
76120;DHT22;64852;48.092;-1.640;2023-01-13T11:50:26;12.70;99.90
76120;DHT22;64852;48.092;-1.640;2023-01-13T11:53:11;12.90;99.90
76120;DHT22;64852;48.092;-1.640;2023-01-13T12:03:42;13.30;99.90
76120;DHT22;64852;48.092;-1.640;2023-01-13T12:06:33;13.40;99.90
76120;DHT22;64852;48.092;-1.640;2023-01-13T12:09:17;12.90;99.90
76120;DHT22;64852;48.092;-1.640;2023-01-13T12:17:08;13.00;99.90
76120;DHT22;64852;48.092;-1.640;2023-01-13T12:19:38;13.00;99.90
76120;DHT22;64852;48.092;-1.640;2023-01-13T12:22:08;13.30;99.90
76120;DHT22;64852;48.092;-1.640;2023-01-13T12:27:38;12.90;99.90
76120;DHT22;64852;48.092;-1.640;2023-01-13T12:30:25;13.00;99.90
76120;DHT22;64852;48.092;-1.640;2023-01-13T12:32:53;12.90;99.90
76120;DHT22;64852;48.092;-1.640;2023-01-13T12:38:01;12.80;99.90
76120;DHT22;64852;48.092;-1.640;2023-01-13T12:40:45;13.10;99.90
76120;DHT22;64852;48.092;-1.640;2023-01-13T12:43:21;13.20;99.90
76120;DHT22;64852;48.092;-1.640;2023-01-13T12:51:24;13.80;99.90
76120;DHT22;64852;48.092;-1.640;2023-01-13T12:53:51;14.00;99.90
76120;DHT22;64852;48.092;-1.640;2023-01-13T13:01:47;14.50;99.90
76120;DHT22;64852;48.092;-1.640;2023-01-13T13:04:17;14.30;99.90
76120;DHT22;64852;48.092;-1.640;2023-01-13T13:06:50;14.10;99.90
76120;DHT22;64852;48.092;-1.640;2023-01-13T13:11:51;14.40;99.90
76120;DHT22;64852;48.092;-1.640;2023-01-13T13:19:56;13.80;99.90
76120;DHT22;64852;48.092;-1.640;2023-01-13T13:29:55;14.00;99.90
76120;DHT22;64852;48.092;-1.640;2023-01-13T13:40:59;13.90;99.90
76120;DHT22;64852;48.092;-1.640;2023-01-13T13:43:44;13.50;99.90
76120;DHT22;64852;48.092;-1.640;2023-01-13T13:46:31;13.70;99.90
76120;DHT22;64852;48.092;-1.640;2023-01-13T13:49:20;13.70;99.90
76120;DHT22;64852;48.092;-1.640;2023-01-13T13:54:44;14.20;99.90
76120;DHT22;64852;48.092;-1.640;2023-01-13T13:57:35;14.40;99.90
76120;DHT22;64852;48.092;-1.640;2023-01-13T14:00:28;14.30;99.90
76120;DHT22;64852;48.092;-1.640;2023-01-13T14:02:56;14.50;99.90
76120;DHT22;64852;48.092;-1.640;2023-01-13T14:05:34;14.50;99.90
76120;DHT22;64852;48.092;-1.640;2023-01-13T14:10:33;14.20;99.90
76120;DHT22;64852;48.092;-1.640;2023-01-13T14:13:22;14.10;99.90
76120;DHT22;64852;48.092;-1.640;2023-01-13T14:15:59;14.20;99.90
76120;DHT22;64852;48.092;-1.640;2023-01-13T14:18:26;14.20;99.90
76120;DHT22;64852;48.092;-1.640;2023-01-13T14:23:26;14.70;99.90
76120;DHT22;64852;48.092;-1.640;2023-01-13T14:25:52;14.80;99.90
76120;DHT22;64852;48.092;-1.640;2023-01-13T14:28:41;14.80;99.90
76120;DHT22;64852;48.092;-1.640;2023-01-13T14:31:08;14.80;99.90
76120;DHT22;64852;48.092;-1.640;2023-01-13T14:33:37;14.30;99.90
76120;DHT22;64852;48.092;-1.640;2023-01-13T14:36:17;14.10;99.90
76120;DHT22;64852;48.092;-1.640;2023-01-13T14:38:49;14.10;99.90
76120;DHT22;64852;48.092;-1.640;2023-01-13T14:41:20;14.20;99.90
76120;DHT22;64852;48.092;-1.640;2023-01-13T14:43:48;14.10;99.90
76120;DHT22;64852;48.092;-1.640;2023-01-13T14:46:15;13.80;99.90
76120;DHT22;64852;48.092;-1.640;2023-01-13T14:48:43;14.00;99.90
76120;DHT22;64852;48.092;-1.640;2023-01-13T14:51:19;13.80;99.90
76120;DHT22;64852;48.092;-1.640;2023-01-13T14:53:47;13.80;99.90
76120;DHT22;64852;48.092;-1.640;2023-01-13T15:04:57;13.90;99.90
76120;DHT22;64852;48.092;-1.640;2023-01-13T15:10:50;14.10;99.90
76120;DHT22;64852;48.092;-1.640;2023-01-13T15:15:50;14.30;99.90
76120;DHT22;64852;48.092;-1.640;2023-01-13T15:18:16;14.20;99.90
76120;DHT22;64852;48.092;-1.640;2023-01-13T15:20:43;14.20;99.90
76120;DHT22;64852;48.092;-1.640;2023-01-13T15:23:09;14.20;99.90
76120;DHT22;64852;48.092;-1.640;2023-01-13T15:25:37;14.50;99.90
76120;DHT22;64852;48.092;-1.640;2023-01-13T15:28:04;14.70;99.90
76120;DHT22;64852;48.092;-1.640;2023-01-13T15:30:31;14.70;99.90
76120;DHT22;64852;48.092;-1.640;2023-01-13T15:32:57;14.70;99.90
76120;DHT22;64852;48.092;-1.640;2023-01-13T15:35:25;14.50;99.90
76120;DHT22;64852;48.092;-1.640;2023-01-13T15:37:53;14.80;99.90
76120;DHT22;64852;48.092;-1.640;2023-01-13T15:40:27;15.00;99.90
76120;DHT22;64852;48.092;-1.640;2023-01-13T15:42:54;15.20;99.90
76120;DHT22;64852;48.092;-1.640;2023-01-13T15:45:39;15.40;99.90
76120;DHT22;64852;48.092;-1.640;2023-01-13T15:48:25;15.10;99.90
76120;DHT22;64852;48.092;-1.640;2023-01-13T15:50:52;14.80;99.90
76120;DHT22;64852;48.092;-1.640;2023-01-13T15:53:19;14.40;99.90
76120;DHT22;64852;48.092;-1.640;2023-01-13T15:55:49;14.00;99.90
76120;DHT22;64852;48.092;-1.640;2023-01-13T15:58:19;14.00;99.90
76120;DHT22;64852;48.092;-1.640;2023-01-13T16:00:44;14.10;99.90
76120;DHT22;64852;48.092;-1.640;2023-01-13T16:03:12;14.00;99.90
76120;DHT22;64852;48.092;-1.640;2023-01-13T16:05:38;13.90;99.90
76120;DHT22;64852;48.092;-1.640;2023-01-13T16:08:04;13.70;99.90
76120;DHT22;64852;48.092;-1.640;2023-01-13T16:10:30;13.90;99.90
76120;DHT22;64852;48.092;-1.640;2023-01-13T16:12:55;14.30;99.90
76120;DHT22;64852;48.092;-1.640;2023-01-13T16:15:22;14.20;99.90
76120;DHT22;64852;48.092;-1.640;2023-01-13T16:17:56;14.30;99.90
76120;DHT22;64852;48.092;-1.640;2023-01-13T16:20:22;14.50;99.90
76120;DHT22;64852;48.092;-1.640;2023-01-13T16:22:48;14.80;99.90
76120;DHT22;64852;48.092;-1.640;2023-01-13T16:25:22;15.00;99.90
76120;DHT22;64852;48.092;-1.640;2023-01-13T16:27:50;15.00;99.90
76120;DHT22;64852;48.092;-1.640;2023-01-13T16:32:55;14.70;99.90
76120;DHT22;64852;48.092;-1.640;2023-01-13T16:35:21;14.50;99.90
76120;DHT22;64852;48.092;-1.640;2023-01-13T16:37:47;14.60;99.90
76120;DHT22;64852;48.092;-1.640;2023-01-13T16:42:48;14.50;99.90
76120;DHT22;64852;48.092;-1.640;2023-01-13T16:45:14;14.50;99.90
76120;DHT22;64852;48.092;-1.640;2023-01-13T16:47:39;14.70;99.90
76120;DHT22;64852;48.092;-1.640;2023-01-13T16:50:05;14.90;99.90
76120;DHT22;64852;48.092;-1.640;2023-01-13T16:52:31;14.90;99.90
76120;DHT22;64852;48.092;-1.640;2023-01-13T16:54:57;14.60;99.90
76120;DHT22;64852;48.092;-1.640;2023-01-13T16:57:25;14.40;99.90
76120;DHT22;64852;48.092;-1.640;2023-01-13T16:59:50;14.30;99.90
76120;DHT22;64852;48.092;-1.640;2023-01-13T17:02:16;14.20;99.90
76120;DHT22;64852;48.092;-1.640;2023-01-13T17:04:42;14.00;99.90
76120;DHT22;64852;48.092;-1.640;2023-01-13T17:07:10;14.10;99.90
76120;DHT22;64852;48.092;-1.640;2023-01-13T17:09:39;14.00;99.90
76120;DHT22;64852;48.092;-1.640;2023-01-13T17:12:05;14.10;99.90
76120;DHT22;64852;48.092;-1.640;2023-01-13T17:14:30;14.30;99.90
76120;DHT22;64852;48.092;-1.640;2023-01-13T17:16:56;14.40;99.90
76120;DHT22;64852;48.092;-1.640;2023-01-13T17:19:22;14.50;99.90
76120;DHT22;64852;48.092;-1.640;2023-01-13T17:21:48;14.40;99.90
76120;DHT22;64852;48.092;-1.640;2023-01-13T17:24:15;14.50;99.90
76120;DHT22;64852;48.092;-1.640;2023-01-13T17:26:43;14.50;99.90
76120;DHT22;64852;48.092;-1.640;2023-01-13T17:29:14;14.70;99.90
76120;DHT22;64852;48.092;-1.640;2023-01-13T17:31:40;14.70;99.90
76120;DHT22;64852;48.092;-1.640;2023-01-13T17:34:05;14.70;99.90
76120;DHT22;64852;48.092;-1.640;2023-01-13T17:36:31;14.70;99.90
76120;DHT22;64852;48.092;-1.640;2023-01-13T17:38:57;14.70;99.90
76120;DHT22;64852;48.092;-1.640;2023-01-13T17:41:24;14.80;99.90
76120;DHT22;64852;48.092;-1.640;2023-01-13T17:43:51;14.70;99.90
76120;DHT22;64852;48.092;-1.640;2023-01-13T17:46:17;14.70;99.90
76120;DHT22;64852;48.092;-1.640;2023-01-13T17:48:44;14.70;99.90
76120;DHT22;64852;48.092;-1.640;2023-01-13T17:51:12;14.70;99.90
76120;DHT22;64852;48.092;-1.640;2023-01-13T17:53:38;14.70;99.90
76120;DHT22;64852;48.092;-1.640;2023-01-13T17:56:05;14.60;99.90
76120;DHT22;64852;48.092;-1.640;2023-01-13T17:58:32;14.80;99.90
76120;DHT22;64852;48.092;-1.640;2023-01-13T18:00:57;14.80;99.90
76120;DHT22;64852;48.092;-1.640;2023-01-13T18:03:23;14.80;99.90
76120;DHT22;64852;48.092;-1.640;2023-01-13T18:05:49;14.70;99.90
76120;DHT22;64852;48.092;-1.640;2023-01-13T18:08:15;14.80;99.90